sensor_id;sensor_type;location;lat;lon;timestamp;temperature;humidity
66722;SHT31;53633;49.932;10.884;2022-11-15T00:01:30;7.11;90.39
66722;SHT31;53633;49.932;10.884;2022-11-15T00:03:57;7.04;90.51
66722;SHT31;53633;49.932;10.884;2022-11-15T00:06:23;6.97;90.54
66722;SHT31;53633;49.932;10.884;2022-11-15T00:08:50;6.95;90.80
66722;SHT31;53633;49.932;10.884;2022-11-15T00:11:17;6.95;90.85
66722;SHT31;53633;49.932;10.884;2022-11-15T00:13:44;6.99;90.83
66722;SHT31;53633;49.932;10.884;2022-11-15T00:16:10;6.97;90.83
66722;SHT31;53633;49.932;10.884;2022-11-15T00:18:38;7.00;90.89
66722;SHT31;53633;49.932;10.884;2022-11-15T00:21:07;7.00;90.94
66722;SHT31;53633;49.932;10.884;2022-11-15T00:23:34;7.03;90.88
66722;SHT31;53633;49.932;10.884;2022-11-15T00:26:01;7.07;90.90
66722;SHT31;53633;49.932;10.884;2022-11-15T00:28:28;7.04;90.79
66722;SHT31;53633;49.932;10.884;2022-11-15T00:31:00;6.95;90.87
66722;SHT31;53633;49.932;10.884;2022-11-15T00:33:26;6.88;91.04
66722;SHT31;53633;49.932;10.884;2022-11-15T00:35:59;6.75;91.11
66722;SHT31;53633;49.932;10.884;2022-11-15T00:38:30;6.65;91.26
66722;SHT31;53633;49.932;10.884;2022-11-15T00:40:57;6.59;91.41
66722;SHT31;53633;49.932;10.884;2022-11-15T00:43:23;6.59;91.51
66722;SHT31;53633;49.932;10.884;2022-11-15T00:45:50;6.51;91.53
66722;SHT31;53633;49.932;10.884;2022-11-15T00:48:17;6.42;91.69
66722;SHT31;53633;49.932;10.884;2022-11-15T00:50:44;6.41;91.46
66722;SHT31;53633;49.932;10.884;2022-11-15T00:53:12;6.42;91.80
66722;SHT31;53633;49.932;10.884;2022-11-15T00:55:38;6.55;91.54
66722;SHT31;53633;49.932;10.884;2022-11-15T00:58:05;6.62;91.23
66722;SHT31;53633;49.932;10.884;2022-11-15T01:00:32;6.67;91.24
66722;SHT31;53633;49.932;10.884;2022-11-15T01:02:59;6.72;91.04
66722;SHT31;53633;49.932;10.884;2022-11-15T01:05:27;6.78;90.81
66722;SHT31;53633;49.932;10.884;2022-11-15T01:07:55;6.81;91.02
66722;SHT31;53633;49.932;10.884;2022-11-15T01:10:24;6.85;91.06
66722;SHT31;53633;49.932;10.884;2022-11-15T01:12:50;6.88;90.93
66722;SHT31;53633;49.932;10.884;2022-11-15T01:15:17;7.00;90.57
66722;SHT31;53633;49.932;10.884;2022-11-15T01:17:44;7.06;90.49
66722;SHT31;53633;49.932;10.884;2022-11-15T01:20:11;7.16;90.20
66722;SHT31;53633;49.932;10.884;2022-11-15T01:22:38;7.11;89.72
66722;SHT31;53633;49.932;10.884;2022-11-15T01:25:05;7.01;89.74
66722;SHT31;53633;49.932;10.884;2022-11-15T01:27:33;6.93;89.84
66722;SHT31;53633;49.932;10.884;2022-11-15T01:30:00;6.96;89.88
66722;SHT31;53633;49.932;10.884;2022-11-15T01:32:26;6.95;90.05
66722;SHT31;53633;49.932;10.884;2022-11-15T01:34:53;6.93;90.07
66722;SHT31;53633;49.932;10.884;2022-11-15T01:37:20;6.93;90.36
66722;SHT31;53633;49.932;10.884;2022-11-15T01:39:46;6.99;90.33
66722;SHT31;53633;49.932;10.884;2022-11-15T01:42:13;7.01;90.45
66722;SHT31;53633;49.932;10.884;2022-11-15T01:44:44;7.07;90.30
66722;SHT31;53633;49.932;10.884;2022-11-15T01:47:13;7.11;90.35
66722;SHT31;53633;49.932;10.884;2022-11-15T01:49:46;7.16;90.36
66722;SHT31;53633;49.932;10.884;2022-11-15T01:52:17;7.19;90.44
66722;SHT31;53633;49.932;10.884;2022-11-15T01:54:45;7.20;90.52
66722;SHT31;53633;49.932;10.884;2022-11-15T01:57:13;7.20;90.59
66722;SHT31;53633;49.932;10.884;2022-11-15T01:59:43;7.17;90.45
66722;SHT31;53633;49.932;10.884;2022-11-15T02:02:11;7.20;90.62
66722;SHT31;53633;49.932;10.884;2022-11-15T02:04:43;7.21;90.67
66722;SHT31;53633;49.932;10.884;2022-11-15T02:07:12;7.21;90.76
66722;SHT31;53633;49.932;10.884;2022-11-15T02:09:39;7.21;90.77
66722;SHT31;53633;49.932;10.884;2022-11-15T02:12:07;7.23;90.90
66722;SHT31;53633;49.932;10.884;2022-11-15T02:14:36;7.26;90.93
66722;SHT31;53633;49.932;10.884;2022-11-15T02:17:15;7.32;90.96
66722;SHT31;53633;49.932;10.884;2022-11-15T02:20:09;7.32;91.05
66722;SHT31;53633;49.932;10.884;2022-11-15T02:22:48;7.40;90.84
66722;SHT31;53633;49.932;10.884;2022-11-15T02:25:36;7.41;90.84
66722;SHT31;53633;49.932;10.884;2022-11-15T02:28:30;7.52;90.63
66722;SHT31;53633;49.932;10.884;2022-11-15T02:31:04;7.58;90.53
66722;SHT31;53633;49.932;10.884;2022-11-15T02:33:44;7.62;90.45
66722;SHT31;53633;49.932;10.884;2022-11-15T02:36:15;7.65;90.53
66722;SHT31;53633;49.932;10.884;2022-11-15T02:38:50;7.69;90.52
66722;SHT31;53633;49.932;10.884;2022-11-15T02:41:25;7.72;90.44
66722;SHT31;53633;49.932;10.884;2022-11-15T02:44:01;7.78;90.19
66722;SHT31;53633;49.932;10.884;2022-11-15T02:46:35;7.85;89.94
66722;SHT31;53633;49.932;10.884;2022-11-15T02:49:03;7.87;89.90
66722;SHT31;53633;49.932;10.884;2022-11-15T02:51:30;7.96;89.54
66722;SHT31;53633;49.932;10.884;2022-11-15T02:53:58;8.03;89.56
66722;SHT31;53633;49.932;10.884;2022-11-15T02:56:25;8.12;89.01
66722;SHT31;53633;49.932;10.884;2022-11-15T03:01:56;8.10;88.90
66722;SHT31;53633;49.932;10.884;2022-11-15T03:04:33;8.16;88.85
66722;SHT31;53633;49.932;10.884;2022-11-15T03:07:07;8.17;88.65
66722;SHT31;53633;49.932;10.884;2022-11-15T03:09:40;8.24;88.79
66722;SHT31;53633;49.932;10.884;2022-11-15T03:12:12;8.29;88.70
66722;SHT31;53633;49.932;10.884;2022-11-15T03:14:49;8.36;88.30
66722;SHT31;53633;49.932;10.884;2022-11-15T03:17:23;8.29;88.45
66722;SHT31;53633;49.932;10.884;2022-11-15T03:19:52;8.26;88.60
66722;SHT31;53633;49.932;10.884;2022-11-15T03:22:22;8.24;88.80
66722;SHT31;53633;49.932;10.884;2022-11-15T03:24:53;8.27;88.96
66722;SHT31;53633;49.932;10.884;2022-11-15T03:27:24;8.27;88.79
66722;SHT31;53633;49.932;10.884;2022-11-15T03:29:55;8.26;88.91
66722;SHT31;53633;49.932;10.884;2022-11-15T03:32:26;8.23;89.01
66722;SHT31;53633;49.932;10.884;2022-11-15T03:34:57;8.24;89.08
66722;SHT31;53633;49.932;10.884;2022-11-15T03:37:30;8.22;89.05
66722;SHT31;53633;49.932;10.884;2022-11-15T03:39:59;8.19;88.90
66722;SHT31;53633;49.932;10.884;2022-11-15T03:42:30;8.13;88.65
66722;SHT31;53633;49.932;10.884;2022-11-15T03:45:02;8.00;88.81
66722;SHT31;53633;49.932;10.884;2022-11-15T03:47:33;7.83;89.19
66722;SHT31;53633;49.932;10.884;2022-11-15T03:50:03;7.78;89.52
66722;SHT31;53633;49.932;10.884;2022-11-15T03:52:32;7.72;89.22
66722;SHT31;53633;49.932;10.884;2022-11-15T03:55:01;7.64;89.54
66722;SHT31;53633;49.932;10.884;2022-11-15T03:57:29;7.72;89.35
66722;SHT31;53633;49.932;10.884;2022-11-15T03:59:56;7.68;88.88
66722;SHT31;53633;49.932;10.884;2022-11-15T04:02:22;7.59;89.22
66722;SHT31;53633;49.932;10.884;2022-11-15T04:04:50;7.57;89.35
66722;SHT31;53633;49.932;10.884;2022-11-15T04:07:17;7.45;89.60
66722;SHT31;53633;49.932;10.884;2022-11-15T04:09:44;7.41;89.89
66722;SHT31;53633;49.932;10.884;2022-11-15T04:12:11;7.37;90.00
66722;SHT31;53633;49.932;10.884;2022-11-15T04:14:37;7.44;89.88
66722;SHT31;53633;49.932;10.884;2022-11-15T04:17:04;7.59;89.32
66722;SHT31;53633;49.932;10.884;2022-11-15T04:19:30;7.41;89.52
66722;SHT31;53633;49.932;10.884;2022-11-15T04:21:59;7.28;89.87
66722;SHT31;53633;49.932;10.884;2022-11-15T04:24:25;7.23;90.33
66722;SHT31;53633;49.932;10.884;2022-11-15T04:26:52;7.27;90.10
66722;SHT31;53633;49.932;10.884;2022-11-15T04:29:18;7.23;90.10
66722;SHT31;53633;49.932;10.884;2022-11-15T04:31:45;7.16;90.53
66722;SHT31;53633;49.932;10.884;2022-11-15T04:34:12;7.06;90.49
66722;SHT31;53633;49.932;10.884;2022-11-15T04:36:38;6.99;90.66
66722;SHT31;53633;49.932;10.884;2022-11-15T04:39:07;7.00;90.63
66722;SHT31;53633;49.932;10.884;2022-11-15T04:41:33;7.01;90.30
66722;SHT31;53633;49.932;10.884;2022-11-15T04:44:00;7.00;90.13
66722;SHT31;53633;49.932;10.884;2022-11-15T04:46:27;7.10;89.72
66722;SHT31;53633;49.932;10.884;2022-11-15T04:48:54;7.01;89.98
66722;SHT31;53633;49.932;10.884;2022-11-15T04:51:24;7.10;89.44
66722;SHT31;53633;49.932;10.884;2022-11-15T04:53:51;7.01;89.73
66722;SHT31;53633;49.932;10.884;2022-11-15T04:56:19;6.92;89.93
66722;SHT31;53633;49.932;10.884;2022-11-15T04:58:48;6.88;90.31
66722;SHT31;53633;49.932;10.884;2022-11-15T05:01:15;6.76;90.25
66722;SHT31;53633;49.932;10.884;2022-11-15T05:03:42;6.64;90.16
66722;SHT31;53633;49.932;10.884;2022-11-15T05:06:09;6.51;90.67
66722;SHT31;53633;49.932;10.884;2022-11-15T05:08:35;6.37;90.75
66722;SHT31;53633;49.932;10.884;2022-11-15T05:11:02;6.28;91.12
66722;SHT31;53633;49.932;10.884;2022-11-15T05:13:30;6.35;91.04
66722;SHT31;53633;49.932;10.884;2022-11-15T05:15:57;6.30;90.89
66722;SHT31;53633;49.932;10.884;2022-11-15T05:18:24;6.30;91.07
66722;SHT31;53633;49.932;10.884;2022-11-15T05:20:51;6.10;91.13
66722;SHT31;53633;49.932;10.884;2022-11-15T05:23:17;6.00;91.50
66722;SHT31;53633;49.932;10.884;2022-11-15T05:25:44;5.92;91.43
66722;SHT31;53633;49.932;10.884;2022-11-15T05:28:11;5.86;91.49
66722;SHT31;53633;49.932;10.884;2022-11-15T05:30:39;5.66;91.34
66722;SHT31;53633;49.932;10.884;2022-11-15T05:33:06;5.58;91.78
66722;SHT31;53633;49.932;10.884;2022-11-15T05:35:36;5.45;91.65
66722;SHT31;53633;49.932;10.884;2022-11-15T05:38:05;5.32;91.89
66722;SHT31;53633;49.932;10.884;2022-11-15T05:40:33;5.20;91.87
66722;SHT31;53633;49.932;10.884;2022-11-15T05:43:01;5.13;92.51
66722;SHT31;53633;49.932;10.884;2022-11-15T05:45:29;5.03;92.45
66722;SHT31;53633;49.932;10.884;2022-11-15T05:48:01;5.00;92.88
66722;SHT31;53633;49.932;10.884;2022-11-15T05:50:31;4.97;93.51
66722;SHT31;53633;49.932;10.884;2022-11-15T05:52:58;5.00;93.94
66722;SHT31;53633;49.932;10.884;2022-11-15T05:55:31;5.07;93.83
66722;SHT31;53633;49.932;10.884;2022-11-15T05:57:58;5.04;93.72
66722;SHT31;53633;49.932;10.884;2022-11-15T06:00:26;5.01;93.94
66722;SHT31;53633;49.932;10.884;2022-11-15T06:02:52;4.99;94.01
66722;SHT31;53633;49.932;10.884;2022-11-15T06:05:20;4.97;93.68
66722;SHT31;53633;49.932;10.884;2022-11-15T06:07:47;4.90;93.77
66722;SHT31;53633;49.932;10.884;2022-11-15T06:10:14;4.96;94.36
66722;SHT31;53633;49.932;10.884;2022-11-15T06:12:40;4.87;93.89
66722;SHT31;53633;49.932;10.884;2022-11-15T06:15:08;4.93;94.16
66722;SHT31;53633;49.932;10.884;2022-11-15T06:17:35;4.87;94.22
66722;SHT31;53633;49.932;10.884;2022-11-15T06:20:02;4.89;94.27
66722;SHT31;53633;49.932;10.884;2022-11-15T06:22:30;5.14;94.07
66722;SHT31;53633;49.932;10.884;2022-11-15T06:24:57;5.28;93.58
66722;SHT31;53633;49.932;10.884;2022-11-15T06:27:30;5.20;93.48
66722;SHT31;53633;49.932;10.884;2022-11-15T06:29:57;5.07;93.55
66722;SHT31;53633;49.932;10.884;2022-11-15T06:32:24;4.99;93.69
66722;SHT31;53633;49.932;10.884;2022-11-15T06:34:51;4.97;94.35
66722;SHT31;53633;49.932;10.884;2022-11-15T06:37:17;4.94;94.45
66722;SHT31;53633;49.932;10.884;2022-11-15T06:39:46;5.04;94.68
66722;SHT31;53633;49.932;10.884;2022-11-15T06:42:12;5.03;94.63
66722;SHT31;53633;49.932;10.884;2022-11-15T06:44:39;5.09;94.76
66722;SHT31;53633;49.932;10.884;2022-11-15T06:47:06;5.06;94.49
66722;SHT31;53633;49.932;10.884;2022-11-15T06:49:32;5.06;94.66
66722;SHT31;53633;49.932;10.884;2022-11-15T06:51:59;5.13;94.47
66722;SHT31;53633;49.932;10.884;2022-11-15T06:54:26;5.13;93.95
66722;SHT31;53633;49.932;10.884;2022-11-15T06:56:54;5.19;93.57
66722;SHT31;53633;49.932;10.884;2022-11-15T06:59:24;5.27;93.15
66722;SHT31;53633;49.932;10.884;2022-11-15T07:01:50;5.27;93.15
66722;SHT31;53633;49.932;10.884;2022-11-15T07:04:20;5.30;92.98
66722;SHT31;53633;49.932;10.884;2022-11-15T07:06:47;5.26;93.05
66722;SHT31;53633;49.932;10.884;2022-11-15T07:09:14;5.32;92.43
66722;SHT31;53633;49.932;10.884;2022-11-15T07:11:40;5.30;92.16
66722;SHT31;53633;49.932;10.884;2022-11-15T07:14:09;5.35;92.12
66722;SHT31;53633;49.932;10.884;2022-11-15T07:16:36;5.47;91.89
66722;SHT31;53633;49.932;10.884;2022-11-15T07:19:02;5.37;91.96
66722;SHT31;53633;49.932;10.884;2022-11-15T07:21:29;5.28;91.72
66722;SHT31;53633;49.932;10.884;2022-11-15T07:23:56;5.30;92.25
66722;SHT31;53633;49.932;10.884;2022-11-15T07:26:22;5.23;92.27
66722;SHT31;53633;49.932;10.884;2022-11-15T07:28:49;5.28;92.55
66722;SHT31;53633;49.932;10.884;2022-11-15T07:31:17;5.35;92.71
66722;SHT31;53633;49.932;10.884;2022-11-15T07:33:44;5.51;92.84
66722;SHT31;53633;49.932;10.884;2022-11-15T07:36:11;5.72;92.60
66722;SHT31;53633;49.932;10.884;2022-11-15T07:38:37;5.95;92.05
66722;SHT31;53633;49.932;10.884;2022-11-15T07:41:08;6.46;90.65
66722;SHT31;53633;49.932;10.884;2022-11-15T07:43:35;7.79;87.09
66722;SHT31;53633;49.932;10.884;2022-11-15T07:48:47;11.36;74.47
66722;SHT31;53633;49.932;10.884;2022-11-15T07:51:15;12.29;69.83
66722;SHT31;53633;49.932;10.884;2022-11-15T07:53:44;13.36;65.99
66722;SHT31;53633;49.932;10.884;2022-11-15T07:56:12;14.13;63.40
66722;SHT31;53633;49.932;10.884;2022-11-15T07:58:38;15.11;60.69
66722;SHT31;53633;49.932;10.884;2022-11-15T08:01:06;15.85;58.02
66722;SHT31;53633;49.932;10.884;2022-11-15T08:03:33;16.09;56.10
66722;SHT31;53633;49.932;10.884;2022-11-15T08:06:06;16.61;55.62
66722;SHT31;53633;49.932;10.884;2022-11-15T08:08:33;16.96;53.63
66722;SHT31;53633;49.932;10.884;2022-11-15T08:11:00;17.03;53.50
66722;SHT31;53633;49.932;10.884;2022-11-15T08:13:30;17.35;52.70
66722;SHT31;53633;49.932;10.884;2022-11-15T08:15:58;17.14;53.37
66722;SHT31;53633;49.932;10.884;2022-11-15T08:18:25;17.60;52.66
66722;SHT31;53633;49.932;10.884;2022-11-15T08:20:51;18.02;51.78
66722;SHT31;53633;49.932;10.884;2022-11-15T08:23:19;17.83;51.74
66722;SHT31;53633;49.932;10.884;2022-11-15T08:25:46;17.95;51.59
66722;SHT31;53633;49.932;10.884;2022-11-15T08:28:15;17.95;51.72
66722;SHT31;53633;49.932;10.884;2022-11-15T08:30:43;17.75;52.10
66722;SHT31;53633;49.932;10.884;2022-11-15T08:33:11;18.14;51.55
66722;SHT31;53633;49.932;10.884;2022-11-15T08:35:38;18.51;50.88
66722;SHT31;53633;49.932;10.884;2022-11-15T08:38:05;18.72;50.10
66722;SHT31;53633;49.932;10.884;2022-11-15T08:40:33;18.50;50.53
66722;SHT31;53633;49.932;10.884;2022-11-15T08:42:59;18.61;50.44
66722;SHT31;53633;49.932;10.884;2022-11-15T08:45:26;18.51;50.41
66722;SHT31;53633;49.932;10.884;2022-11-15T08:47:53;18.87;50.09
66722;SHT31;53633;49.932;10.884;2022-11-15T08:50:20;18.98;49.62
66722;SHT31;53633;49.932;10.884;2022-11-15T08:52:47;19.23;48.78
66722;SHT31;53633;49.932;10.884;2022-11-15T08:55:13;19.54;48.13
66722;SHT31;53633;49.932;10.884;2022-11-15T08:57:44;19.45;47.99
66722;SHT31;53633;49.932;10.884;2022-11-15T09:00:13;18.87;49.32
66722;SHT31;53633;49.932;10.884;2022-11-15T09:02:40;18.36;51.28
66722;SHT31;53633;49.932;10.884;2022-11-15T09:05:10;17.81;52.25
66722;SHT31;53633;49.932;10.884;2022-11-15T09:07:37;17.40;53.54
66722;SHT31;53633;49.932;10.884;2022-11-15T09:10:04;16.55;55.75
66722;SHT31;53633;49.932;10.884;2022-11-15T09:12:31;16.34;56.35
66722;SHT31;53633;49.932;10.884;2022-11-15T09:14:59;15.51;58.89
66722;SHT31;53633;49.932;10.884;2022-11-15T09:17:26;15.42;60.00
66722;SHT31;53633;49.932;10.884;2022-11-15T09:19:53;14.81;61.22
66722;SHT31;53633;49.932;10.884;2022-11-15T09:22:22;14.36;62.96
66722;SHT31;53633;49.932;10.884;2022-11-15T09:24:49;14.01;63.75
66722;SHT31;53633;49.932;10.884;2022-11-15T09:27:16;13.48;65.66
66722;SHT31;53633;49.932;10.884;2022-11-15T09:29:42;13.18;67.03
66722;SHT31;53633;49.932;10.884;2022-11-15T09:32:11;12.98;67.47
66722;SHT31;53633;49.932;10.884;2022-11-15T09:34:40;12.54;69.02
66722;SHT31;53633;49.932;10.884;2022-11-15T09:37:06;12.33;70.49
66722;SHT31;53633;49.932;10.884;2022-11-15T09:39:33;12.26;71.04
66722;SHT31;53633;49.932;10.884;2022-11-15T09:42:10;12.19;70.83
66722;SHT31;53633;49.932;10.884;2022-11-15T09:45:08;12.09;71.13
66722;SHT31;53633;49.932;10.884;2022-11-15T09:47:54;12.09;71.42
66722;SHT31;53633;49.932;10.884;2022-11-15T09:50:30;12.04;72.10
66722;SHT31;53633;49.932;10.884;2022-11-15T09:52:58;11.97;72.30
66722;SHT31;53633;49.932;10.884;2022-11-15T09:55:36;11.94;71.95
66722;SHT31;53633;49.932;10.884;2022-11-15T09:58:15;11.95;72.12
66722;SHT31;53633;49.932;10.884;2022-11-15T10:00:47;11.98;71.86
66722;SHT31;53633;49.932;10.884;2022-11-15T10:03:18;11.99;71.88
66722;SHT31;53633;49.932;10.884;2022-11-15T10:05:49;11.80;71.77
66722;SHT31;53633;49.932;10.884;2022-11-15T10:08:31;11.88;71.00
66722;SHT31;53633;49.932;10.884;2022-11-15T10:11:05;11.95;71.19
66722;SHT31;53633;49.932;10.884;2022-11-15T10:13:56;11.94;71.00
66722;SHT31;53633;49.932;10.884;2022-11-15T10:16:41;12.01;70.17
66722;SHT31;53633;49.932;10.884;2022-11-15T10:19:23;11.97;70.34
66722;SHT31;53633;49.932;10.884;2022-11-15T10:21:59;12.06;70.31
66722;SHT31;53633;49.932;10.884;2022-11-15T10:24:28;12.11;68.76
66722;SHT31;53633;49.932;10.884;2022-11-15T10:26:58;12.21;66.65
66722;SHT31;53633;49.932;10.884;2022-11-15T10:29:25;12.28;66.05
66722;SHT31;53633;49.932;10.884;2022-11-15T10:31:53;12.36;65.55
66722;SHT31;53633;49.932;10.884;2022-11-15T10:34:22;12.35;65.74
66722;SHT31;53633;49.932;10.884;2022-11-15T10:36:54;12.43;65.28
66722;SHT31;53633;49.932;10.884;2022-11-15T10:39:21;12.45;63.68
66722;SHT31;53633;49.932;10.884;2022-11-15T10:41:48;12.47;63.94
66722;SHT31;53633;49.932;10.884;2022-11-15T10:44:24;12.50;64.38
66722;SHT31;53633;49.932;10.884;2022-11-15T10:47:22;12.54;63.85
66722;SHT31;53633;49.932;10.884;2022-11-15T10:50:05;12.47;64.60
66722;SHT31;53633;49.932;10.884;2022-11-15T10:52:35;12.46;64.59
66722;SHT31;53633;49.932;10.884;2022-11-15T10:55:17;12.50;64.99
66722;SHT31;53633;49.932;10.884;2022-11-15T10:57:51;12.49;64.31
66722;SHT31;53633;49.932;10.884;2022-11-15T11:00:31;12.45;64.71
66722;SHT31;53633;49.932;10.884;2022-11-15T11:03:02;12.46;65.00
66722;SHT31;53633;49.932;10.884;2022-11-15T11:05:33;12.49;64.05
66722;SHT31;53633;49.932;10.884;2022-11-15T11:08:21;12.49;65.04
66722;SHT31;53633;49.932;10.884;2022-11-15T11:10:52;12.46;66.17
66722;SHT31;53633;49.932;10.884;2022-11-15T11:13:28;12.37;67.11
66722;SHT31;53633;49.932;10.884;2022-11-15T11:18:54;12.30;67.02
66722;SHT31;53633;49.932;10.884;2022-11-15T11:21:30;12.18;67.80
66722;SHT31;53633;49.932;10.884;2022-11-15T11:24:11;12.11;68.26
66722;SHT31;53633;49.932;10.884;2022-11-15T11:26:43;12.08;67.57
66722;SHT31;53633;49.932;10.884;2022-11-15T11:29:24;12.15;66.36
66722;SHT31;53633;49.932;10.884;2022-11-15T11:31:58;12.21;65.70
66722;SHT31;53633;49.932;10.884;2022-11-15T11:34:37;12.21;65.75
66722;SHT31;53633;49.932;10.884;2022-11-15T11:37:12;12.15;66.33
66722;SHT31;53633;49.932;10.884;2022-11-15T11:39:49;12.15;67.28
66722;SHT31;53633;49.932;10.884;2022-11-15T11:42:26;12.08;67.45
66722;SHT31;53633;49.932;10.884;2022-11-15T11:45:05;12.08;67.42
66722;SHT31;53633;49.932;10.884;2022-11-15T11:47:47;12.14;67.33
66722;SHT31;53633;49.932;10.884;2022-11-15T11:50:18;12.21;67.01
66722;SHT31;53633;49.932;10.884;2022-11-15T11:52:54;12.25;67.34
66722;SHT31;53633;49.932;10.884;2022-11-15T11:55:32;12.29;66.75
66722;SHT31;53633;49.932;10.884;2022-11-15T11:58:06;12.42;66.63
66722;SHT31;53633;49.932;10.884;2022-11-15T12:00:40;12.42;65.86
66722;SHT31;53633;49.932;10.884;2022-11-15T12:03:14;12.45;65.69
66722;SHT31;53633;49.932;10.884;2022-11-15T12:05:48;12.42;65.86
66722;SHT31;53633;49.932;10.884;2022-11-15T12:08:31;12.46;65.99
66722;SHT31;53633;49.932;10.884;2022-11-15T12:11:07;12.49;65.93
66722;SHT31;53633;49.932;10.884;2022-11-15T12:13:36;12.49;65.97
66722;SHT31;53633;49.932;10.884;2022-11-15T12:16:07;12.57;65.57
66722;SHT31;53633;49.932;10.884;2022-11-15T12:18:37;12.70;64.90
66722;SHT31;53633;49.932;10.884;2022-11-15T12:21:07;12.92;63.88
66722;SHT31;53633;49.932;10.884;2022-11-15T12:23:39;13.04;63.78
66722;SHT31;53633;49.932;10.884;2022-11-15T12:26:11;13.19;63.84
66722;SHT31;53633;49.932;10.884;2022-11-15T12:28:41;13.38;63.25
66722;SHT31;53633;49.932;10.884;2022-11-15T12:31:35;13.46;62.75
66722;SHT31;53633;49.932;10.884;2022-11-15T12:34:04;13.50;62.40
66722;SHT31;53633;49.932;10.884;2022-11-15T12:36:41;13.60;62.07
66722;SHT31;53633;49.932;10.884;2022-11-15T12:39:13;13.60;61.30
66722;SHT31;53633;49.932;10.884;2022-11-15T12:41:44;13.56;62.00
66722;SHT31;53633;49.932;10.884;2022-11-15T12:44:12;13.53;62.58
66722;SHT31;53633;49.932;10.884;2022-11-15T12:46:59;13.53;63.09
66722;SHT31;53633;49.932;10.884;2022-11-15T12:49:45;13.53;63.17
66722;SHT31;53633;49.932;10.884;2022-11-15T12:52:12;13.56;64.09
66722;SHT31;53633;49.932;10.884;2022-11-15T12:55:01;13.52;63.16
66722;SHT31;53633;49.932;10.884;2022-11-15T12:57:49;13.49;63.47
66722;SHT31;53633;49.932;10.884;2022-11-15T13:03:33;13.46;63.78
66722;SHT31;53633;49.932;10.884;2022-11-15T13:06:08;13.43;64.09
66722;SHT31;53633;49.932;10.884;2022-11-15T13:08:47;13.55;63.61
66722;SHT31;53633;49.932;10.884;2022-11-15T13:11:45;13.55;64.25
66722;SHT31;53633;49.932;10.884;2022-11-15T13:20:20;13.48;64.84
66722;SHT31;53633;49.932;10.884;2022-11-15T13:22:48;13.45;65.37
66722;SHT31;53633;49.932;10.884;2022-11-15T13:25:16;13.43;65.65
66722;SHT31;53633;49.932;10.884;2022-11-15T13:27:46;13.43;65.24
66722;SHT31;53633;49.932;10.884;2022-11-15T13:30:20;13.48;64.76
66722;SHT31;53633;49.932;10.884;2022-11-15T13:32:48;13.38;65.01
66722;SHT31;53633;49.932;10.884;2022-11-15T13:35:20;13.34;65.66
66722;SHT31;53633;49.932;10.884;2022-11-15T13:37:48;13.26;66.16
66722;SHT31;53633;49.932;10.884;2022-11-15T13:40:26;13.22;66.24
66722;SHT31;53633;49.932;10.884;2022-11-15T13:42:55;13.11;66.32
66722;SHT31;53633;49.932;10.884;2022-11-15T13:45:22;13.08;66.28
66722;SHT31;53633;49.932;10.884;2022-11-15T13:47:55;13.04;66.63
66722;SHT31;53633;49.932;10.884;2022-11-15T13:50:24;13.02;66.79
66722;SHT31;53633;49.932;10.884;2022-11-15T13:52:52;13.01;66.51
66722;SHT31;53633;49.932;10.884;2022-11-15T13:55:20;13.01;66.77
66722;SHT31;53633;49.932;10.884;2022-11-15T13:57:52;13.08;66.56
66722;SHT31;53633;49.932;10.884;2022-11-15T14:00:30;13.05;66.47
66722;SHT31;53633;49.932;10.884;2022-11-15T14:03:06;12.98;66.97
66722;SHT31;53633;49.932;10.884;2022-11-15T14:05:33;13.02;66.97
66722;SHT31;53633;49.932;10.884;2022-11-15T14:08:02;12.95;66.93
66722;SHT31;53633;49.932;10.884;2022-11-15T14:10:31;12.97;67.01
66722;SHT31;53633;49.932;10.884;2022-11-15T14:12:58;13.02;67.00
66722;SHT31;53633;49.932;10.884;2022-11-15T14:15:29;13.01;67.14
66722;SHT31;53633;49.932;10.884;2022-11-15T14:17:57;13.04;67.10
66722;SHT31;53633;49.932;10.884;2022-11-15T14:20:30;12.94;67.21
66722;SHT31;53633;49.932;10.884;2022-11-15T14:22:58;12.84;67.80
66722;SHT31;53633;49.932;10.884;2022-11-15T14:25:26;12.74;68.32
66722;SHT31;53633;49.932;10.884;2022-11-15T14:28:29;12.66;68.91
66722;SHT31;53633;49.932;10.884;2022-11-15T14:30:59;12.50;69.61
66722;SHT31;53633;49.932;10.884;2022-11-15T14:33:28;12.42;70.19
66722;SHT31;53633;49.932;10.884;2022-11-15T14:35:57;12.35;70.49
66722;SHT31;53633;49.932;10.884;2022-11-15T14:38:24;12.25;70.96
66722;SHT31;53633;49.932;10.884;2022-11-15T14:40:51;12.19;71.19
66722;SHT31;53633;49.932;10.884;2022-11-15T14:43:18;12.12;71.56
66722;SHT31;53633;49.932;10.884;2022-11-15T14:45:45;12.14;71.60
66722;SHT31;53633;49.932;10.884;2022-11-15T14:48:13;12.08;71.71
66722;SHT31;53633;49.932;10.884;2022-11-15T14:50:40;12.08;72.37
66722;SHT31;53633;49.932;10.884;2022-11-15T14:53:15;12.05;72.53
66722;SHT31;53633;49.932;10.884;2022-11-15T14:55:42;12.05;72.31
66722;SHT31;53633;49.932;10.884;2022-11-15T14:58:09;12.09;72.24
66722;SHT31;53633;49.932;10.884;2022-11-15T15:00:38;12.08;72.36
66722;SHT31;53633;49.932;10.884;2022-11-15T15:03:06;12.11;73.15
66722;SHT31;53633;49.932;10.884;2022-11-15T15:05:35;12.05;73.56
66722;SHT31;53633;49.932;10.884;2022-11-15T15:08:02;12.06;73.90
66722;SHT31;53633;49.932;10.884;2022-11-15T15:10:32;12.04;73.84
66722;SHT31;53633;49.932;10.884;2022-11-15T15:13:13;11.98;74.36
66722;SHT31;53633;49.932;10.884;2022-11-15T15:15:41;11.89;74.60
66722;SHT31;53633;49.932;10.884;2022-11-15T15:18:08;11.84;74.64
66722;SHT31;53633;49.932;10.884;2022-11-15T15:20:38;11.81;74.79
66722;SHT31;53633;49.932;10.884;2022-11-15T15:23:07;11.78;75.25
66722;SHT31;53633;49.932;10.884;2022-11-15T15:25:35;11.73;75.41
66722;SHT31;53633;49.932;10.884;2022-11-15T15:28:02;11.69;75.74
66722;SHT31;53633;49.932;10.884;2022-11-15T15:30:30;11.60;76.29
66722;SHT31;53633;49.932;10.884;2022-11-15T15:32:57;11.44;76.81
66722;SHT31;53633;49.932;10.884;2022-11-15T15:35:26;11.24;77.59
66722;SHT31;53633;49.932;10.884;2022-11-15T15:37:56;11.08;78.16
66722;SHT31;53633;49.932;10.884;2022-11-15T15:40:24;10.92;78.75
66722;SHT31;53633;49.932;10.884;2022-11-15T15:42:51;10.79;79.28
66722;SHT31;53633;49.932;10.884;2022-11-15T15:45:18;10.67;80.05
66722;SHT31;53633;49.932;10.884;2022-11-15T15:47:45;10.54;80.47
66722;SHT31;53633;49.932;10.884;2022-11-15T15:50:22;10.46;81.00
66722;SHT31;53633;49.932;10.884;2022-11-15T15:52:49;10.39;81.24
66722;SHT31;53633;49.932;10.884;2022-11-15T15:55:17;10.33;81.62
66722;SHT31;53633;49.932;10.884;2022-11-15T15:57:44;10.30;81.67
66722;SHT31;53633;49.932;10.884;2022-11-15T16:00:11;10.29;81.98